Noi Bai International Airport
VVNB : now visible

Aeroporto :











RITROVATECI SU...

 
LOGIN :

Iscrizione | Disclaimer

   EN    FR    IT 

 









Sommario :    VFR   VFR Marginale   IFR   IFR Intensivo   IFR Molto Intensivo
Visibilità : 
Base nubi : 
>= 8 km
>= 3000ft
5 / 8 km
1000 / 3000 ft
1500m / 5 km
500 / 1000 ft
800 / 1500m
200 / 500 ft
< 800m
< 200 ft
Simboli :   Temporali  Nebbia  Neve Forte  Precipitazioni Forti  Vento > 20 kt






- Altitudine del aeroporto : 39 ft
- Codice IATA : HAN


VVNB - Noi Bai International

ULTIMO METAR :
  • 122300Z 01002KT 2400 -RA BR SCT011 BKN017 24/22 Q1016 NOSIG

METARs OBSOLETI :
  • 122230Z 00000KT 2800 BR SCT011 BKN017 24/22 Q1016 NOSIG
  • 122200Z 27002KT 2700 BR SCT011 BKN017 24/22 Q1015 NOSIG
  • 122130Z VRB01KT 2900 BR SCT011 BKN022 24/22 Q1015 NOSIG
  • 122100Z VRB01KT 3000 BR BKN011 24/22 Q1015 NOSIG
  • 122030Z 33002KT 3000 BR BKN010 24/22 Q1015 NOSIG

TAF TAF VVNB
Valido dal 12 a 18 ore il 13 a 18 ore UTC


121700Z 1218/1318 12005KT 3000 BR SCT020
TEMPO 1218/1222 1200 -RA BR SCT005 BKN020
BECMG 1303/1305 6000 NSW
TEMPO 1309/1313 2000 +RA SCT020 FEW023TCU
BECMG 1314/1316 02015KT



MetMap, La meteo Aeronautica in un colpo d'occhio ! - Copyright ORBIFLY Dicembre 2007 - Disclaimer

ORBIFLY MET'MAP TEAM :

Programmazione e sviluppo : Alexandra Zaïnal
Concezione e sviluppo : Baudouin d'Aumeries
Co-Programmazione e sviluppo : Marc-Olivier Méhu
Supporto tecnico e logistico : Manuel Goepfert
Aiuto per la traduzione : Arnaldo La Scala

Contatto : metmap@orbifly.com




FONTI E CREDITI :

   NOAA       Earth
Advisory